sensor_id;sensor_type;location;lat;lon;timestamp;pressure;altitude;pressure_sealevel;temperature;humidity
77799;BME280;66989;50.426;15.352;2024-03-25T00:00:42;96663.28;;;3.66;95.81
77799;BME280;66989;50.426;15.352;2024-03-25T00:03:07;96654.84;;;3.62;95.74
77799;BME280;66989;50.426;15.352;2024-03-25T00:05:33;96648.69;;;3.63;95.56
77799;BME280;66989;50.426;15.352;2024-03-25T00:07:58;96659.31;;;3.60;95.62
77799;BME280;66989;50.426;15.352;2024-03-25T00:10:24;96651.63;;;3.59;95.37
77799;BME280;66989;50.426;15.352;2024-03-25T00:12:49;96651.75;;;3.57;95.45
77799;BME280;66989;50.426;15.352;2024-03-25T00:15:19;96654.47;;;3.55;95.69
77799;BME280;66989;50.426;15.352;2024-03-25T00:17:45;96654.47;;;3.55;95.61
77799;BME280;66989;50.426;15.352;2024-03-25T00:20:12;96651.88;;;3.55;96.06
77799;BME280;66989;50.426;15.352;2024-03-25T00:22:38;96649.00;;;3.59;95.31
77799;BME280;66989;50.426;15.352;2024-03-25T00:25:04;96638.72;;;3.57;95.45
77799;BME280;66989;50.426;15.352;2024-03-25T00:27:29;96642.28;;;3.56;95.54
77799;BME280;66989;50.426;15.352;2024-03-25T00:29:56;96639.41;;;3.59;95.25
77799;BME280;66989;50.426;15.352;2024-03-25T00:32:21;96639.31;;;3.61;95.22
77799;BME280;66989;50.426;15.352;2024-03-25T00:34:47;96644.88;;;3.56;95.31
77799;BME280;66989;50.426;15.352;2024-03-25T00:37:12;96636.31;;;3.54;95.24
77799;BME280;66989;50.426;15.352;2024-03-25T00:39:38;96642.28;;;3.56;95.26
77799;BME280;66989;50.426;15.352;2024-03-25T00:42:03;96634.44;;;3.56;95.20
77799;BME280;66989;50.426;15.352;2024-03-25T00:44:29;96633.84;;;3.52;95.16
77799;BME280;66989;50.426;15.352;2024-03-25T00:46:55;96644.97;;;3.54;94.69
77799;BME280;66989;50.426;15.352;2024-03-25T00:49:20;96635.16;;;3.58;94.33
77799;BME280;66989;50.426;15.352;2024-03-25T00:51:47;96632.75;;;3.55;94.84
77799;BME280;66989;50.426;15.352;2024-03-25T00:54:12;96632.19;;;3.51;94.72
77799;BME280;66989;50.426;15.352;2024-03-25T00:56:37;96629.34;;;3.54;94.59
77799;BME280;66989;50.426;15.352;2024-03-25T00:59:03;96629.81;;;3.60;93.98
77799;BME280;66989;50.426;15.352;2024-03-25T01:01:32;96632.34;;;3.61;94.40
77799;BME280;66989;50.426;15.352;2024-03-25T01:03:58;96632.44;;;3.60;94.15
77799;BME280;66989;50.426;15.352;2024-03-25T01:06:24;96626.19;;;3.62;94.02
77799;BME280;66989;50.426;15.352;2024-03-25T01:08:49;96622.41;;;3.66;93.24
77799;BME280;66989;50.426;15.352;2024-03-25T01:11:15;96616.47;;;3.64;93.39
77799;BME280;66989;50.426;15.352;2024-03-25T01:13:40;96607.00;;;3.63;93.83
77799;BME280;66989;50.426;15.352;2024-03-25T01:16:07;96610.06;;;3.68;93.46
77799;BME280;66989;50.426;15.352;2024-03-25T01:18:32;96618.38;;;3.73;93.37
77799;BME280;66989;50.426;15.352;2024-03-25T01:20:58;96605.97;;;3.77;92.90
77799;BME280;66989;50.426;15.352;2024-03-25T01:23:25;96611.41;;;3.85;92.21
77799;BME280;66989;50.426;15.352;2024-03-25T01:25:51;96614.63;;;3.89;92.24
77799;BME280;66989;50.426;15.352;2024-03-25T01:28:17;96621.16;;;3.94;92.17
77799;BME280;66989;50.426;15.352;2024-03-25T01:30:43;96610.16;;;4.02;91.72
77799;BME280;66989;50.426;15.352;2024-03-25T01:33:09;96620.59;;;4.02;92.34
77799;BME280;66989;50.426;15.352;2024-03-25T01:35:34;96609.91;;;4.05;91.37
77799;BME280;66989;50.426;15.352;2024-03-25T01:37:59;96608.97;;;4.06;91.66
77799;BME280;66989;50.426;15.352;2024-03-25T01:40:25;96603.66;;;4.07;91.69
77799;BME280;66989;50.426;15.352;2024-03-25T01:43:03;96609.56;;;4.09;90.91
77799;BME280;66989;50.426;15.352;2024-03-25T01:45:33;96604.00;;;4.14;90.39
77799;BME280;66989;50.426;15.352;2024-03-25T01:48:02;96602.22;;;4.15;90.21
77799;BME280;66989;50.426;15.352;2024-03-25T01:50:28;96612.53;;;4.16;90.63
77799;BME280;66989;50.426;15.352;2024-03-25T01:52:54;96598.66;;;4.16;90.73
77799;BME280;66989;50.426;15.352;2024-03-25T01:55:22;96605.91;;;4.23;89.97
77799;BME280;66989;50.426;15.352;2024-03-25T01:57:49;96600.78;;;4.22;90.11
77799;BME280;66989;50.426;15.352;2024-03-25T02:00:15;96600.22;;;4.18;90.23
77799;BME280;66989;50.426;15.352;2024-03-25T02:02:44;96595.47;;;4.23;90.22
77799;BME280;66989;50.426;15.352;2024-03-25T02:05:11;96594.06;;;4.19;90.44
77799;BME280;66989;50.426;15.352;2024-03-25T02:07:37;96599.25;;;4.19;89.60
77799;BME280;66989;50.426;15.352;2024-03-25T02:10:05;96603.31;;;4.23;89.45
77799;BME280;66989;50.426;15.352;2024-03-25T02:12:32;96590.75;;;4.28;89.52
77799;BME280;66989;50.426;15.352;2024-03-25T02:14:58;96593.22;;;4.30;89.00
77799;BME280;66989;50.426;15.352;2024-03-25T02:17:24;96593.22;;;4.30;89.37
77799;BME280;66989;50.426;15.352;2024-03-25T02:19:50;96592.53;;;4.28;89.67
77799;BME280;66989;50.426;15.352;2024-03-25T02:22:16;96599.50;;;4.27;89.59
77799;BME280;66989;50.426;15.352;2024-03-25T02:24:42;96596.06;;;4.27;90.06
77799;BME280;66989;50.426;15.352;2024-03-25T02:27:08;96599.75;;;4.24;90.30
77799;BME280;66989;50.426;15.352;2024-03-25T02:29:35;96602.69;;;4.20;91.43
77799;BME280;66989;50.426;15.352;2024-03-25T02:32:01;96609.69;;;4.19;91.06
77799;BME280;66989;50.426;15.352;2024-03-25T02:34:26;96600.09;;;4.20;90.39
77799;BME280;66989;50.426;15.352;2024-03-25T02:36:52;96601.41;;;4.14;90.82
77799;BME280;66989;50.426;15.352;2024-03-25T02:39:19;96594.03;;;4.08;91.31
77799;BME280;66989;50.426;15.352;2024-03-25T02:41:45;96601.38;;;4.03;91.70
77799;BME280;66989;50.426;15.352;2024-03-25T02:44:11;96608.25;;;4.04;92.27
77799;BME280;66989;50.426;15.352;2024-03-25T02:46:39;96614.19;;;4.06;92.64
77799;BME280;66989;50.426;15.352;2024-03-25T02:49:07;96619.38;;;4.06;92.75
77799;BME280;66989;50.426;15.352;2024-03-25T02:51:32;96607.31;;;4.05;93.09
77799;BME280;66989;50.426;15.352;2024-03-25T02:53:57;96618.09;;;4.00;93.92
77799;BME280;66989;50.426;15.352;2024-03-25T02:56:23;96620.69;;;4.00;94.35
77799;BME280;66989;50.426;15.352;2024-03-25T02:58:49;96617.38;;;3.98;94.36
77799;BME280;66989;50.426;15.352;2024-03-25T03:01:16;96626.38;;;3.94;95.22
77799;BME280;66989;50.426;15.352;2024-03-25T03:03:42;96622.22;;;3.92;94.92
77799;BME280;66989;50.426;15.352;2024-03-25T03:06:07;96617.94;;;3.91;95.14
77799;BME280;66989;50.426;15.352;2024-03-25T03:08:32;96623.28;;;3.89;94.71
77799;BME280;66989;50.426;15.352;2024-03-25T03:10:58;96624.09;;;3.90;94.76
77799;BME280;66989;50.426;15.352;2024-03-25T03:13:23;96627.53;;;3.90;94.08
77799;BME280;66989;50.426;15.352;2024-03-25T03:15:48;96628.38;;;3.91;94.15
77799;BME280;66989;50.426;15.352;2024-03-25T03:18:14;96634.31;;;3.93;94.02
77799;BME280;66989;50.426;15.352;2024-03-25T03:20:39;96644.75;;;3.93;94.12
77799;BME280;66989;50.426;15.352;2024-03-25T03:23:04;96633.16;;;3.97;93.99
77799;BME280;66989;50.426;15.352;2024-03-25T03:25:30;96642.72;;;3.96;93.84
77799;BME280;66989;50.426;15.352;2024-03-25T03:27:56;96645.31;;;3.96;93.72
77799;BME280;66989;50.426;15.352;2024-03-25T03:30:21;96650.78;;;3.93;94.24
77799;BME280;66989;50.426;15.352;2024-03-25T03:32:47;96649.84;;;3.94;93.01
77799;BME280;66989;50.426;15.352;2024-03-25T03:35:12;96661.34;;;3.92;93.98
77799;BME280;66989;50.426;15.352;2024-03-25T03:37:38;96651.34;;;3.86;94.75
77799;BME280;66989;50.426;15.352;2024-03-25T03:40:03;96657.63;;;3.83;94.46
77799;BME280;66989;50.426;15.352;2024-03-25T03:42:31;96670.06;;;3.79;94.75
77799;BME280;66989;50.426;15.352;2024-03-25T03:44:57;96666.97;;;3.74;94.99
77799;BME280;66989;50.426;15.352;2024-03-25T03:47:22;96668.84;;;3.72;95.78
77799;BME280;66989;50.426;15.352;2024-03-25T03:49:47;96664.69;;;3.70;96.25
77799;BME280;66989;50.426;15.352;2024-03-25T03:52:13;96670.03;;;3.68;96.29
77799;BME280;66989;50.426;15.352;2024-03-25T03:54:38;96671.19;;;3.64;96.98
77799;BME280;66989;50.426;15.352;2024-03-25T03:57:04;96674.41;;;3.68;96.38
77799;BME280;66989;50.426;15.352;2024-03-25T03:59:30;96672.63;;;3.68;96.18
77799;BME280;66989;50.426;15.352;2024-03-25T04:01:56;96674.75;;;3.63;96.90
77799;BME280;66989;50.426;15.352;2024-03-25T04:04:21;96682.34;;;3.66;97.11
77799;BME280;66989;50.426;15.352;2024-03-25T04:06:47;96678.91;;;3.66;97.59
77799;BME280;66989;50.426;15.352;2024-03-25T04:09:12;96686.81;;;3.64;97.29
77799;BME280;66989;50.426;15.352;2024-03-25T04:11:38;96687.06;;;3.61;97.43
77799;BME280;66989;50.426;15.352;2024-03-25T04:14:04;96685.16;;;3.63;97.73
77799;BME280;66989;50.426;15.352;2024-03-25T04:16:31;96695.59;;;3.63;97.58
77799;BME280;66989;50.426;15.352;2024-03-25T04:18:57;96691.22;;;3.64;97.25
77799;BME280;66989;50.426;15.352;2024-03-25T04:21:23;96695.59;;;3.63;97.76
77799;BME280;66989;50.426;15.352;2024-03-25T04:23:48;96691.44;;;3.61;97.52
77799;BME280;66989;50.426;15.352;2024-03-25T04:26:17;96693.31;;;3.59;97.51
77799;BME280;66989;50.426;15.352;2024-03-25T04:28:43;96692.28;;;3.61;97.06
77799;BME280;66989;50.426;15.352;2024-03-25T04:31:08;96703.53;;;3.62;96.58
77799;BME280;66989;50.426;15.352;2024-03-25T04:33:34;96699.16;;;3.62;96.21
77799;BME280;66989;50.426;15.352;2024-03-25T04:36:00;96709.56;;;3.62;96.90
77799;BME280;66989;50.426;15.352;2024-03-25T04:38:25;96719.25;;;3.60;96.38
77799;BME280;66989;50.426;15.352;2024-03-25T04:40:51;96718.09;;;3.64;96.31
77799;BME280;66989;50.426;15.352;2024-03-25T04:43:16;96721.44;;;3.66;96.56
77799;BME280;66989;50.426;15.352;2024-03-25T04:45:42;96707.91;;;3.61;96.17
77799;BME280;66989;50.426;15.352;2024-03-25T04:48:07;96716.56;;;3.62;96.22
77799;BME280;66989;50.426;15.352;2024-03-25T04:50:33;96721.03;;;3.60;96.34
77799;BME280;66989;50.426;15.352;2024-03-25T04:52:59;96726.03;;;3.63;95.94
77799;BME280;66989;50.426;15.352;2024-03-25T04:55:24;96721.84;;;3.60;95.80
77799;BME280;66989;50.426;15.352;2024-03-25T04:57:49;96720.19;;;3.59;95.77
77799;BME280;66989;50.426;15.352;2024-03-25T05:00:15;96733.22;;;3.59;96.37
77799;BME280;66989;50.426;15.352;2024-03-25T05:02:41;96722.72;;;3.61;95.75
77799;BME280;66989;50.426;15.352;2024-03-25T05:05:06;96728.75;;;3.61;95.54
77799;BME280;66989;50.426;15.352;2024-03-25T05:07:33;96736.47;;;3.63;95.68
77799;BME280;66989;50.426;15.352;2024-03-25T05:09:59;96738.84;;;3.66;95.43
77799;BME280;66989;50.426;15.352;2024-03-25T05:12:24;96748.53;;;3.64;95.77
77799;BME280;66989;50.426;15.352;2024-03-25T05:14:58;96753.44;;;3.68;95.70
77799;BME280;66989;50.426;15.352;2024-03-25T05:17:23;96760.28;;;3.69;95.62
77799;BME280;66989;50.426;15.352;2024-03-25T05:19:49;96758.50;;;3.70;95.92
77799;BME280;66989;50.426;15.352;2024-03-25T05:22:14;96764.47;;;3.72;95.50
77799;BME280;66989;50.426;15.352;2024-03-25T05:24:40;96772.78;;;3.77;95.94
77799;BME280;66989;50.426;15.352;2024-03-25T05:27:05;96773.50;;;3.79;95.40
77799;BME280;66989;50.426;15.352;2024-03-25T05:29:31;96777.44;;;3.85;95.18
77799;BME280;66989;50.426;15.352;2024-03-25T05:32:00;96790.47;;;3.85;95.15
77799;BME280;66989;50.426;15.352;2024-03-25T05:34:27;96785.03;;;3.88;94.43
77799;BME280;66989;50.426;15.352;2024-03-25T05:36:53;96782.31;;;3.89;94.60
77799;BME280;66989;50.426;15.352;2024-03-25T05:39:18;96796.19;;;3.90;94.31
77799;BME280;66989;50.426;15.352;2024-03-25T05:41:45;96796.06;;;3.91;94.36
77799;BME280;66989;50.426;15.352;2024-03-25T05:44:11;96800.94;;;3.96;93.55
77799;BME280;66989;50.426;15.352;2024-03-25T05:46:36;96804.88;;;4.01;92.82
77799;BME280;66989;50.426;15.352;2024-03-25T05:49:03;96800.41;;;4.03;92.76
77799;BME280;66989;50.426;15.352;2024-03-25T05:51:29;96810.72;;;4.05;93.33
77799;BME280;66989;50.426;15.352;2024-03-25T05:53:55;96809.06;;;4.04;93.03
77799;BME280;66989;50.426;15.352;2024-03-25T05:56:20;96815.72;;;4.08;93.22
77799;BME280;66989;50.426;15.352;2024-03-25T05:58:46;96811.94;;;4.12;92.81
77799;BME280;66989;50.426;15.352;2024-03-25T06:01:12;96822.38;;;4.12;93.10
77799;BME280;66989;50.426;15.352;2024-03-25T06:03:37;96825.91;;;4.11;93.20
77799;BME280;66989;50.426;15.352;2024-03-25T06:06:03;96822.47;;;4.11;92.91
77799;BME280;66989;50.426;15.352;2024-03-25T06:08:28;96829.34;;;4.12;91.66
77799;BME280;66989;50.426;15.352;2024-03-25T06:11:01;96827.97;;;4.19;92.50
77799;BME280;66989;50.426;15.352;2024-03-25T06:13:27;96822.50;;;4.22;91.93
77799;BME280;66989;50.426;15.352;2024-03-25T06:15:52;96833.56;;;4.25;91.07
77799;BME280;66989;50.426;15.352;2024-03-25T06:18:17;96824.09;;;4.24;91.50
77799;BME280;66989;50.426;15.352;2024-03-25T06:20:43;96826.00;;;4.22;91.08
77799;BME280;66989;50.426;15.352;2024-03-25T06:23:08;96840.44;;;4.26;90.00
77799;BME280;66989;50.426;15.352;2024-03-25T06:25:33;96839.16;;;4.32;89.65
77799;BME280;66989;50.426;15.352;2024-03-25T06:28:00;96848.25;;;4.50;90.05
77799;BME280;66989;50.426;15.352;2024-03-25T06:30:26;96853.84;;;4.57;88.41
77799;BME280;66989;50.426;15.352;2024-03-25T06:33:10;96851.97;;;4.59;88.46
77799;BME280;66989;50.426;15.352;2024-03-25T06:35:54;96858.97;;;4.58;88.47
77799;BME280;66989;50.426;15.352;2024-03-25T06:38:21;96865.72;;;4.61;87.53
77799;BME280;66989;50.426;15.352;2024-03-25T06:40:46;96862.03;;;4.64;87.76
77799;BME280;66989;50.426;15.352;2024-03-25T06:43:12;96863.94;;;4.61;87.57
77799;BME280;66989;50.426;15.352;2024-03-25T06:45:37;96869.88;;;4.64;86.86
77799;BME280;66989;50.426;15.352;2024-03-25T06:48:03;96886.63;;;4.61;88.21
77799;BME280;66989;50.426;15.352;2024-03-25T06:50:29;96884.50;;;4.66;88.31
77799;BME280;66989;50.426;15.352;2024-03-25T06:52:54;96879.28;;;4.66;88.72
77799;BME280;66989;50.426;15.352;2024-03-25T06:55:20;96895.09;;;4.76;88.91
77799;BME280;66989;50.426;15.352;2024-03-25T06:57:48;96897.72;;;4.76;88.44
77799;BME280;66989;50.426;15.352;2024-03-25T07:00:14;96898.53;;;4.76;87.92
77799;BME280;66989;50.426;15.352;2024-03-25T07:02:40;96893.09;;;4.79;87.63
77799;BME280;66989;50.426;15.352;2024-03-25T07:05:06;96899.84;;;4.82;87.66
77799;BME280;66989;50.426;15.352;2024-03-25T07:07:31;96908.31;;;4.85;87.06
77799;BME280;66989;50.426;15.352;2024-03-25T07:09:57;96909.38;;;4.94;87.04
77799;BME280;66989;50.426;15.352;2024-03-25T07:12:22;96912.03;;;5.05;87.16
77799;BME280;66989;50.426;15.352;2024-03-25T07:14:48;96908.63;;;5.16;87.35
77799;BME280;66989;50.426;15.352;2024-03-25T07:17:14;96909.09;;;5.32;87.76
77799;BME280;66989;50.426;15.352;2024-03-25T07:19:39;96921.09;;;5.46;87.13
77799;BME280;66989;50.426;15.352;2024-03-25T07:22:04;96925.16;;;5.61;85.80
77799;BME280;66989;50.426;15.352;2024-03-25T07:24:30;96932.44;;;5.69;84.89
77799;BME280;66989;50.426;15.352;2024-03-25T07:26:55;96926.72;;;5.75;83.18
77799;BME280;66989;50.426;15.352;2024-03-25T07:29:20;96933.38;;;5.68;83.65
77799;BME280;66989;50.426;15.352;2024-03-25T07:31:46;96934.69;;;5.62;84.45
77799;BME280;66989;50.426;15.352;2024-03-25T07:34:11;96940.97;;;5.60;84.82
77799;BME280;66989;50.426;15.352;2024-03-25T07:36:37;96939.31;;;5.59;85.29
77799;BME280;66989;50.426;15.352;2024-03-25T07:39:03;96938.84;;;5.54;84.83
77799;BME280;66989;50.426;15.352;2024-03-25T07:41:31;96940.97;;;5.49;86.40
77799;BME280;66989;50.426;15.352;2024-03-25T07:43:56;96947.50;;;5.43;86.18
77799;BME280;66989;50.426;15.352;2024-03-25T07:46:21;96947.72;;;5.40;86.47
77799;BME280;66989;50.426;15.352;2024-03-25T07:48:47;96949.69;;;5.25;86.31
77799;BME280;66989;50.426;15.352;2024-03-25T07:51:12;96969.19;;;5.21;87.81
77799;BME280;66989;50.426;15.352;2024-03-25T07:53:37;96961.09;;;5.13;87.58
77799;BME280;66989;50.426;15.352;2024-03-25T07:56:03;96961.56;;;5.07;88.42
77799;BME280;66989;50.426;15.352;2024-03-25T07:58:30;96973.88;;;5.05;88.62
77799;BME280;66989;50.426;15.352;2024-03-25T08:00:55;96977.44;;;5.04;89.42
77799;BME280;66989;50.426;15.352;2024-03-25T08:03:21;96981.81;;;5.03;88.48
77799;BME280;66989;50.426;15.352;2024-03-25T08:05:47;96982.66;;;5.04;88.70
77799;BME280;66989;50.426;15.352;2024-03-25T08:08:13;96987.50;;;4.97;89.60
77799;BME280;66989;50.426;15.352;2024-03-25T08:10:38;96998.19;;;4.94;89.21
77799;BME280;66989;50.426;15.352;2024-03-25T08:13:03;96996.34;;;4.83;90.85
77799;BME280;66989;50.426;15.352;2024-03-25T08:15:29;97005.25;;;4.81;90.17
77799;BME280;66989;50.426;15.352;2024-03-25T08:17:54;97008.41;;;4.73;90.05
77799;BME280;66989;50.426;15.352;2024-03-25T08:20:20;97027.38;;;4.64;89.92
77799;BME280;66989;50.426;15.352;2024-03-25T08:22:45;97020.91;;;4.57;89.01
77799;BME280;66989;50.426;15.352;2024-03-25T08:25:11;97017.78;;;4.52;90.45
77799;BME280;66989;50.426;15.352;2024-03-25T08:27:37;97011.41;;;4.56;90.73
77799;BME280;66989;50.426;15.352;2024-03-25T08:30:02;97006.63;;;4.74;89.78
77799;BME280;66989;50.426;15.352;2024-03-25T08:32:28;97001.94;;;5.14;89.57
77799;BME280;66989;50.426;15.352;2024-03-25T08:34:54;97011.97;;;6.11;88.72
77799;BME280;66989;50.426;15.352;2024-03-25T08:37:19;97010.56;;;6.73;84.52
77799;BME280;66989;50.426;15.352;2024-03-25T08:39:45;97018.81;;;7.01;82.76
77799;BME280;66989;50.426;15.352;2024-03-25T08:42:12;97006.53;;;7.01;81.04
77799;BME280;66989;50.426;15.352;2024-03-25T08:44:38;97017.78;;;6.92;79.64
77799;BME280;66989;50.426;15.352;2024-03-25T08:47:04;97025.75;;;6.90;79.36
77799;BME280;66989;50.426;15.352;2024-03-25T08:49:29;97025.19;;;6.87;77.37
77799;BME280;66989;50.426;15.352;2024-03-25T08:51:54;97021.63;;;6.88;78.82
77799;BME280;66989;50.426;15.352;2024-03-25T08:54:20;97031.50;;;6.84;79.46
77799;BME280;66989;50.426;15.352;2024-03-25T08:56:45;97026.53;;;6.81;78.13
77799;BME280;66989;50.426;15.352;2024-03-25T08:59:10;97030.94;;;6.81;79.26
77799;BME280;66989;50.426;15.352;2024-03-25T09:01:36;97034.13;;;6.84;79.43
77799;BME280;66989;50.426;15.352;2024-03-25T09:04:01;97046.06;;;6.77;79.79
77799;BME280;66989;50.426;15.352;2024-03-25T09:06:27;97041.84;;;6.86;80.10
77799;BME280;66989;50.426;15.352;2024-03-25T09:08:53;97053.50;;;6.93;79.83
77799;BME280;66989;50.426;15.352;2024-03-25T09:11:37;97049.19;;;7.03;79.12
77799;BME280;66989;50.426;15.352;2024-03-25T09:14:02;97050.94;;;7.14;77.99
77799;BME280;66989;50.426;15.352;2024-03-25T09:16:30;97053.97;;;7.30;77.52
77799;BME280;66989;50.426;15.352;2024-03-25T09:18:56;97055.13;;;7.37;77.77
77799;BME280;66989;50.426;15.352;2024-03-25T09:21:21;97047.72;;;7.63;75.65
77799;BME280;66989;50.426;15.352;2024-03-25T09:23:49;97053.84;;;8.06;74.10
77799;BME280;66989;50.426;15.352;2024-03-25T09:26:14;97045.41;;;8.92;71.50
77799;BME280;66989;50.426;15.352;2024-03-25T09:28:40;97048.22;;;9.68;67.83
77799;BME280;66989;50.426;15.352;2024-03-25T09:31:05;97047.81;;;10.39;66.16
77799;BME280;66989;50.426;15.352;2024-03-25T09:33:32;97046.72;;;11.32;62.49
77799;BME280;66989;50.426;15.352;2024-03-25T09:35:58;97040.88;;;11.64;61.83
77799;BME280;66989;50.426;15.352;2024-03-25T09:38:23;97046.22;;;12.16;61.04
77799;BME280;66989;50.426;15.352;2024-03-25T09:40:52;97051.38;;;12.44;58.82
77799;BME280;66989;50.426;15.352;2024-03-25T09:44:13;97046.88;;;12.36;57.93
77799;BME280;66989;50.426;15.352;2024-03-25T09:46:23;97047.63;;;12.55;55.05
77799;BME280;66989;50.426;15.352;2024-03-25T09:48:51;97060.19;;;12.27;56.47
77799;BME280;66989;50.426;15.352;2024-03-25T09:51:17;97058.09;;;11.69;57.53
77799;BME280;66989;50.426;15.352;2024-03-25T09:53:43;97066.91;;;11.59;57.01
77799;BME280;66989;50.426;15.352;2024-03-25T09:56:09;97058.09;;;11.33;58.76
77799;BME280;66989;50.426;15.352;2024-03-25T09:58:35;97064.59;;;11.38;59.05
77799;BME280;66989;50.426;15.352;2024-03-25T10:01:01;97069.69;;;11.40;59.41
77799;BME280;66989;50.426;15.352;2024-03-25T10:03:26;97069.66;;;11.32;58.72
77799;BME280;66989;50.426;15.352;2024-03-25T10:05:52;97081.75;;;11.25;58.68
77799;BME280;66989;50.426;15.352;2024-03-25T10:08:21;97087.25;;;11.13;57.70
77799;BME280;66989;50.426;15.352;2024-03-25T10:10:47;97085.34;;;10.78;59.87
77799;BME280;66989;50.426;15.352;2024-03-25T10:13:12;97089.38;;;10.45;59.68
77799;BME280;66989;50.426;15.352;2024-03-25T10:15:37;97086.16;;;9.95;58.90
77799;BME280;66989;50.426;15.352;2024-03-25T10:18:03;97091.56;;;9.54;60.63
77799;BME280;66989;50.426;15.352;2024-03-25T10:20:28;97093.66;;;9.31;61.12
77799;BME280;66989;50.426;15.352;2024-03-25T10:22:54;97100.72;;;8.81;62.95
77799;BME280;66989;50.426;15.352;2024-03-25T10:25:27;97108.03;;;8.37;64.26
77799;BME280;66989;50.426;15.352;2024-03-25T10:27:54;97105.19;;;7.98;65.73
77799;BME280;66989;50.426;15.352;2024-03-25T10:30:19;97118.53;;;7.74;67.89
77799;BME280;66989;50.426;15.352;2024-03-25T10:32:45;97117.09;;;7.49;66.41
77799;BME280;66989;50.426;15.352;2024-03-25T10:35:10;97121.09;;;7.33;68.19
77799;BME280;66989;50.426;15.352;2024-03-25T10:37:38;97122.19;;;7.19;67.93
77799;BME280;66989;50.426;15.352;2024-03-25T10:40:04;97119.38;;;7.00;70.97
77799;BME280;66989;50.426;15.352;2024-03-25T10:42:34;97117.69;;;6.99;71.78
77799;BME280;66989;50.426;15.352;2024-03-25T10:44:59;97123.53;;;6.91;71.87
77799;BME280;66989;50.426;15.352;2024-03-25T10:47:28;97119.97;;;6.92;71.42
77799;BME280;66989;50.426;15.352;2024-03-25T10:49:59;97128.41;;;6.95;71.40
77799;BME280;66989;50.426;15.352;2024-03-25T10:52:30;97124.94;;;7.06;71.33
77799;BME280;66989;50.426;15.352;2024-03-25T10:54:57;97126.63;;;7.07;70.87
77799;BME280;66989;50.426;15.352;2024-03-25T10:57:23;97125.41;;;7.11;69.11
77799;BME280;66989;50.426;15.352;2024-03-25T10:59:49;97129.81;;;7.11;69.22
77799;BME280;66989;50.426;15.352;2024-03-25T11:02:14;97132.22;;;7.14;69.36
77799;BME280;66989;50.426;15.352;2024-03-25T11:04:42;97132.56;;;7.09;69.85
77799;BME280;66989;50.426;15.352;2024-03-25T11:09:36;97132.00;;;6.94;72.48
77799;BME280;66989;50.426;15.352;2024-03-25T11:12:01;97133.91;;;6.92;72.38
77799;BME280;66989;50.426;15.352;2024-03-25T11:14:27;97132.72;;;6.85;73.41
77799;BME280;66989;50.426;15.352;2024-03-25T11:16:54;97127.47;;;6.85;74.83
77799;BME280;66989;50.426;15.352;2024-03-25T11:19:20;97133.09;;;6.92;74.21
77799;BME280;66989;50.426;15.352;2024-03-25T11:21:46;97124.38;;;7.03;74.37
77799;BME280;66989;50.426;15.352;2024-03-25T11:24:12;97130.19;;;7.17;74.61
77799;BME280;66989;50.426;15.352;2024-03-25T11:26:41;97119.03;;;7.36;73.83
77799;BME280;66989;50.426;15.352;2024-03-25T11:29:08;97114.53;;;7.59;72.73
77799;BME280;66989;50.426;15.352;2024-03-25T11:31:34;97112.94;;;7.89;72.16
77799;BME280;66989;50.426;15.352;2024-03-25T11:34:06;97108.00;;;8.07;69.97
77799;BME280;66989;50.426;15.352;2024-03-25T11:36:34;97108.81;;;8.28;68.48
77799;BME280;66989;50.426;15.352;2024-03-25T11:39:01;97107.22;;;8.37;68.13
77799;BME280;66989;50.426;15.352;2024-03-25T11:41:34;97105.22;;;8.60;66.95
77799;BME280;66989;50.426;15.352;2024-03-25T11:44:01;97110.38;;;8.71;66.98
77799;BME280;66989;50.426;15.352;2024-03-25T11:46:26;97105.16;;;8.81;66.65
77799;BME280;66989;50.426;15.352;2024-03-25T11:48:55;97101.06;;;8.88;65.30
77799;BME280;66989;50.426;15.352;2024-03-25T11:51:20;97099.06;;;8.80;64.38
77799;BME280;66989;50.426;15.352;2024-03-25T11:53:45;97095.50;;;8.91;62.98
77799;BME280;66989;50.426;15.352;2024-03-25T11:56:11;97101.66;;;9.11;63.37
77799;BME280;66989;50.426;15.352;2024-03-25T11:58:38;97100.56;;;9.42;61.98
77799;BME280;66989;50.426;15.352;2024-03-25T12:01:03;97089.25;;;9.71;58.90
77799;BME280;66989;50.426;15.352;2024-03-25T12:03:29;97091.00;;;9.90;57.62
77799;BME280;66989;50.426;15.352;2024-03-25T12:05:55;97093.34;;;10.02;56.14
77799;BME280;66989;50.426;15.352;2024-03-25T12:08:21;97090.56;;;10.04;56.25
77799;BME280;66989;50.426;15.352;2024-03-25T12:10:51;97091.91;;;10.37;56.11
77799;BME280;66989;50.426;15.352;2024-03-25T12:13:37;97090.31;;;10.64;55.60
77799;BME280;66989;50.426;15.352;2024-03-25T12:16:06;97087.91;;;10.70;53.45
77799;BME280;66989;50.426;15.352;2024-03-25T12:18:35;97086.09;;;10.71;53.60
77799;BME280;66989;50.426;15.352;2024-03-25T12:21:01;97080.16;;;10.69;55.26
77799;BME280;66989;50.426;15.352;2024-03-25T12:23:32;97084.38;;;10.52;55.14
77799;BME280;66989;50.426;15.352;2024-03-25T12:26:02;97085.94;;;10.25;53.67
77799;BME280;66989;50.426;15.352;2024-03-25T12:28:28;97091.56;;;10.03;54.82
77799;BME280;66989;50.426;15.352;2024-03-25T12:30:55;97086.47;;;9.72;56.36
77799;BME280;66989;50.426;15.352;2024-03-25T12:33:22;97094.34;;;9.63;56.71
77799;BME280;66989;50.426;15.352;2024-03-25T12:35:51;97093.09;;;9.47;57.30
77799;BME280;66989;50.426;15.352;2024-03-25T12:40:49;97090.31;;;9.49;58.06
77799;BME280;66989;50.426;15.352;2024-03-25T12:43:18;97085.50;;;9.44;57.79
77799;BME280;66989;50.426;15.352;2024-03-25T12:45:44;97097.53;;;9.37;57.66
77799;BME280;66989;50.426;15.352;2024-03-25T12:48:10;97093.66;;;9.31;59.65
77799;BME280;66989;50.426;15.352;2024-03-25T12:50:36;97090.19;;;9.31;59.23
77799;BME280;66989;50.426;15.352;2024-03-25T12:53:02;97083.38;;;9.28;58.56
77799;BME280;66989;50.426;15.352;2024-03-25T12:55:29;97092.81;;;9.31;59.07
77799;BME280;66989;50.426;15.352;2024-03-25T12:57:54;97100.84;;;9.20;59.15
77799;BME280;66989;50.426;15.352;2024-03-25T13:00:20;97096.09;;;9.04;59.14